Time;durP1;ratioP1;P1;durP2;ratioP2;P2;SDS_P1;SDS_P2;PMS_P1;PMS_P2;Temp;Humidity;BMP_temperature;BMP_pressure;BME280_temperature;BME280_humidity;BME280_pressure;Samples;Min_cycle;Max_cycle;Signal;HPM_P1;HPM_P2
2021/08/22 07:51:47;;;;;;;12.90;11.05;;;17.50;99.90;;;;;;6216266;23;20240;-76
2021/08/22 07:54:15;;;;;;;12.02;10.82;;;17.40;99.90;;;;;;6186800;23;20510;-72
2021/08/22 07:56:43;;;;;;;13.87;12.33;;;17.40;99.90;;;;;;6186063;23;20163;-74
2021/08/22 07:59:10;;;;;;;12.40;10.70;;;17.50;99.90;;;;;;6185588;23;20402;-74
2021/08/22 08:01:39;;;;;;;10.70;9.80;;;17.60;99.90;;;;;;6186301;23;20270;-75
2021/08/22 08:04:06;;;;;;;12.00;10.80;;;17.60;99.90;;;;;;6185612;23;20442;-76
2021/08/22 08:06:34;;;;;;;13.40;12.20;;;17.60;99.90;;;;;;6186257;23;20394;-75
2021/08/22 08:09:04;;;;;;;12.30;11.20;;;17.60;99.90;;;;;;6185483;23;20242;-72
2021/08/22 08:11:33;;;;;;;11.40;10.30;;;17.60;99.90;;;;;;6185033;23;20170;-72
2021/08/22 08:14:00;;;;;;;12.85;11.65;;;17.60;99.90;;;;;;6185974;23;20532;-75
2021/08/22 08:16:27;;;;;;;15.23;13.83;;;17.60;99.90;;;;;;6185725;23;20164;-71
2021/08/22 08:18:54;;;;;;;14.43;13.13;;;17.60;99.90;;;;;;6185293;23;20406;-73
2021/08/22 08:21:29;;;;;;;16.70;15.00;;;17.60;99.90;;;;;;6183375;23;20230;-72
2021/08/22 08:23:57;;;;;;;18.57;16.67;;;17.60;99.90;;;;;;6184623;23;20840;-71
2021/08/22 08:26:26;;;;;;;16.80;15.20;;;17.60;99.90;;;;;;6184700;23;20395;-72
2021/08/22 08:28:53;;;;;;;16.17;14.67;;;17.60;99.90;;;;;;6185494;23;20395;-73
2021/08/22 08:31:20;;;;;;;16.30;14.70;;;17.70;99.90;;;;;;6184323;23;20739;-75
2021/08/22 08:33:47;;;;;;;14.97;13.47;;;17.70;99.90;;;;;;6184936;23;20454;-72
2021/08/22 08:36:14;;;;;;;20.00;17.97;;;17.70;99.90;;;;;;6185376;23;20395;-73
2021/08/22 08:38:41;;;;;;;20.23;18.13;;;17.70;99.90;;;;;;6184456;23;20396;-76
2021/08/22 08:41:09;;;;;;;17.13;15.03;;;17.70;99.90;;;;;;6184106;23;20875;-76
2021/08/22 08:43:38;;;;;;;21.70;19.40;;;17.70;99.90;;;;;;6184420;23;20441;-77
2021/08/22 08:46:07;;;;;;;16.73;14.97;;;17.80;99.90;;;;;;6185486;23;20395;-75
2021/08/22 08:48:37;;;;;;;14.80;13.40;;;17.80;99.90;;;;;;6184900;23;20409;-77
2021/08/22 08:51:18;;;;;;;17.40;15.60;;;17.90;99.90;;;;;;6184359;23;20492;-75
2021/08/22 08:53:46;;;;;;;16.23;14.80;;;17.90;99.90;;;;;;6184871;23;20457;-74
2021/08/22 08:56:14;;;;;;;14.40;13.00;;;17.90;99.90;;;;;;6185380;23;20863;-75
2021/08/22 08:58:43;;;;;;;15.60;14.00;;;18.00;99.90;;;;;;6185091;23;20421;-74
2021/08/22 09:01:11;;;;;;;15.40;14.00;;;18.00;99.90;;;;;;6184479;23;20396;-76
2021/08/22 09:03:42;;;;;;;18.27;16.47;;;18.10;99.90;;;;;;6184221;23;20431;-77
2021/08/22 09:06:36;;;;;;;17.50;15.73;;;18.20;99.90;;;;;;6184344;23;20403;-74
2021/08/22 09:09:43;;;;;;;15.70;14.23;;;18.20;99.90;;;;;;6184251;23;20408;-73
2021/08/22 09:13:13;;;;;;;19.40;17.40;;;18.30;99.90;;;;;;6183351;23;20795;-77
2021/08/22 09:16:19;;;;;;;15.90;14.30;;;18.40;99.90;;;;;;6184297;23;20394;-73
2021/08/22 09:19:23;;;;;;;15.83;14.13;;;18.40;99.90;;;;;;6177505;23;20485;-75
2021/08/22 09:22:35;;;;;;;15.30;13.80;;;18.50;99.90;;;;;;6179776;23;20430;-75
2021/08/22 09:25:39;;;;;;;17.23;15.63;;;18.60;99.90;;;;;;6119184;23;20415;-74
2021/08/22 09:28:48;;;;;;;19.53;14.13;;;18.60;99.90;;;;;;6186207;23;20401;-78
2021/08/22 09:31:57;;;;;;;18.03;15.73;;;18.70;99.90;;;;;;6154773;23;20412;-74
2021/08/22 09:35:02;;;;;;;17.00;15.37;;;18.70;99.90;;;;;;6114742;23;20407;-73
2021/08/22 09:38:02;;;;;;;16.67;14.93;;;18.80;99.90;;;;;;6100563;23;20871;-76
2021/08/22 09:41:08;;;;;;;19.90;17.80;;;18.80;99.90;;;;;;6183319;23;20734;-74
2021/08/22 09:44:12;;;;;;;19.47;15.73;;;18.80;99.90;;;;;;6184677;23;20426;-74
2021/08/22 09:47:16;;;;;;;18.33;16.53;;;18.80;99.90;;;;;;6183426;23;20395;-72
2021/08/22 09:50:22;;;;;;;16.70;15.00;;;18.80;99.90;;;;;;6184152;23;20421;-69
2021/08/22 09:53:31;;;;;;;18.07;16.37;;;18.80;99.90;;;;;;6184400;23;20447;-73
2021/08/22 09:56:34;;;;;;;20.03;18.13;;;18.80;99.90;;;;;;6090266;23;20412;-76
2021/08/22 09:59:33;;;;;;;17.00;15.50;;;19.00;99.90;;;;;;6183358;23;20392;-73
2021/08/22 10:02:34;;;;;;;19.40;17.50;;;19.20;99.90;;;;;;6185208;23;20400;-75
2021/08/22 10:05:12;;;;;;;15.13;13.63;;;19.40;99.90;;;;;;6161880;23;20398;-70
2021/08/22 10:07:56;;;;;;;17.00;15.57;;;19.60;99.90;;;;;;6158731;23;20694;-72
2021/08/22 10:10:26;;;;;;;16.70;15.20;;;19.70;99.90;;;;;;6184302;23;20727;-73
2021/08/22 10:12:53;;;;;;;18.90;16.43;;;19.90;99.90;;;;;;6184317;23;20447;-71
2021/08/22 10:15:21;;;;;;;16.50;14.90;;;19.90;99.90;;;;;;6184182;23;20404;-74
2021/08/22 10:17:49;;;;;;;17.80;16.00;;;19.90;99.90;;;;;;6185553;23;20406;-72
2021/08/22 10:20:16;;;;;;;18.83;16.97;;;19.90;99.90;;;;;;6184309;23;20396;-72
2021/08/22 10:22:48;;;;;;;18.20;16.40;;;19.90;99.90;;;;;;6184223;23;20421;-72
2021/08/22 10:25:20;;;;;;;18.73;16.90;;;19.90;99.90;;;;;;6184453;23;20836;-73
2021/08/22 10:27:52;;;;;;;18.43;16.53;;;19.90;99.90;;;;;;6187135;23;20458;-73
2021/08/22 10:30:26;;;;;;;16.80;14.90;;;19.80;99.90;;;;;;6186936;23;20471;-74
2021/08/22 10:33:15;;;;;;;23.03;17.67;;;19.70;99.90;;;;;;6186885;23;20494;-73
2021/08/22 10:35:42;;;;;;;21.40;19.33;;;19.60;99.90;;;;;;6160280;23;20728;-74
2021/08/22 10:38:30;;;;;;;18.87;17.10;;;19.50;99.90;;;;;;6187797;23;20396;-77
2021/08/22 10:40:58;;;;;;;20.50;18.43;;;19.50;99.90;;;;;;6186036;23;20398;-77
2021/08/22 10:43:38;;;;;;;19.50;17.60;;;19.50;99.90;;;;;;6186173;23;20431;-78
2021/08/22 10:46:06;;;;;;;17.40;15.73;;;19.60;99.90;;;;;;6187140;23;20406;-77
2021/08/22 10:48:50;;;;;;;17.90;16.00;;;19.60;99.90;;;;;;6187188;23;20395;-77
2021/08/22 10:51:20;;;;;;;18.37;16.77;;;19.50;99.90;;;;;;6185775;23;21294;-77
2021/08/22 10:53:50;;;;;;;19.30;17.50;;;19.50;99.90;;;;;;6186384;23;20474;-78
2021/08/22 10:56:38;;;;;;;19.87;17.80;;;19.40;99.90;;;;;;6187116;23;20403;-76
2021/08/22 10:59:10;;;;;;;19.13;17.33;;;19.30;99.90;;;;;;6187306;23;20396;-75
2021/08/22 11:01:42;;;;;;;20.67;18.50;;;19.10;99.90;;;;;;6185697;23;20921;-75
2021/08/22 11:04:14;;;;;;;25.67;22.97;;;19.00;99.90;;;;;;6186080;23;20419;-73
2021/08/22 11:06:57;;;;;;;21.13;19.13;;;18.90;99.90;;;;;;6186871;23;20538;-77
2021/08/22 11:09:43;;;;;;;21.00;19.20;;;18.90;99.90;;;;;;6182794;23;20421;-74
2021/08/22 11:12:29;;;;;;;24.17;21.60;;;18.90;99.90;;;;;;6186293;23;20446;-75
2021/08/22 11:14:57;;;;;;;23.37;21.17;;;18.90;99.90;;;;;;6186656;23;20415;-74
2021/08/22 11:17:24;;;;;;;28.07;25.30;;;18.90;99.90;;;;;;6186800;23;20399;-76
2021/08/22 11:19:52;;;;;;;31.10;27.80;;;18.80;99.90;;;;;;6187870;23;20394;-76
2021/08/22 11:22:26;;;;;;;27.20;24.60;;;18.70;99.90;;;;;;6188556;23;20934;-77
2021/08/22 11:24:57;;;;;;;24.00;21.80;;;18.70;99.90;;;;;;6186457;23;20399;-77
2021/08/22 11:27:27;;;;;;;26.47;23.93;;;18.90;99.90;;;;;;6186648;23;20486;-75
2021/08/22 11:29:56;;;;;;;24.67;22.47;;;19.00;99.90;;;;;;6186500;23;20426;-77
2021/08/22 11:32:23;;;;;;;19.60;17.83;;;19.20;99.90;;;;;;6186640;23;20526;-80
2021/08/22 11:34:51;;;;;;;21.97;19.87;;;19.40;99.90;;;;;;6186293;23;20392;-72
2021/08/22 11:37:21;;;;;;;17.47;15.90;;;19.60;99.90;;;;;;6185938;23;20730;-80
2021/08/22 11:39:48;;;;;;;18.63;16.87;;;19.80;99.90;;;;;;6186028;23;20403;-77
2021/08/22 11:42:21;;;;;;;17.97;16.47;;;19.90;99.90;;;;;;6177435;23;20923;-74
2021/08/22 11:44:49;;;;;;;22.50;20.20;;;20.10;99.90;;;;;;6176761;23;20388;-74
2021/08/22 11:47:16;;;;;;;18.77;17.10;;;20.20;99.90;;;;;;6187006;23;20400;-75
2021/08/22 11:49:44;;;;;;;21.57;19.60;;;20.30;99.90;;;;;;6185152;23;20445;-75
2021/08/22 11:52:12;;;;;;;23.10;20.90;;;20.30;99.90;;;;;;6186309;23;20758;-75
2021/08/22 11:54:39;;;;;;;21.73;19.63;;;20.40;99.90;;;;;;6185520;23;20498;-74
2021/08/22 11:57:22;;;;;;;21.23;19.30;;;20.30;99.90;;;;;;6184970;23;20387;-76
2021/08/22 12:00:08;;;;;;;19.23;17.60;;;20.40;99.90;;;;;;6184128;23;20389;-75
2021/08/22 12:02:36;;;;;;;23.07;20.80;;;20.50;99.90;;;;;;6185677;23;20771;-76
2021/08/22 12:05:21;;;;;;;19.47;17.77;;;20.40;99.90;;;;;;6185488;23;20474;-74
2021/08/22 12:07:49;;;;;;;22.50;20.30;;;20.40;99.90;;;;;;6185333;23;20947;-72
2021/08/22 12:10:27;;;;;;;24.73;22.50;;;20.30;99.90;;;;;;6184907;23;20863;-74
2021/08/22 12:12:57;;;;;;;25.17;22.57;;;20.30;99.90;;;;;;6184646;23;20450;-70
2021/08/22 12:15:32;;;;;;;34.70;31.00;;;20.20;99.90;;;;;;6184980;23;20397;-71
2021/08/22 12:18:23;;;;;;;23.50;21.27;;;20.00;99.90;;;;;;6184776;23;20843;-69
2021/08/22 12:20:52;;;;;;;36.70;32.10;;;19.90;99.90;;;;;;6184444;23;20775;-73
2021/08/22 12:23:30;;;;;;;30.60;27.57;;;19.70;99.90;;;;;;6184269;23;20502;-74
2021/08/22 12:25:57;;;;;;;28.10;25.30;;;19.70;99.90;;;;;;6185828;23;20423;-75
2021/08/22 12:28:30;;;;;;;26.77;24.13;;;19.70;99.90;;;;;;6185246;23;20483;-74
2021/08/22 12:31:06;;;;;;;27.20;24.53;;;19.80;99.90;;;;;;6185206;23;20443;-75
2021/08/22 12:33:35;;;;;;;27.73;25.03;;;19.80;99.90;;;;;;6184515;23;20447;-76
2021/08/22 12:36:05;;;;;;;25.87;23.20;;;19.90;99.90;;;;;;6184957;23;20406;-75
2021/08/22 12:38:40;;;;;;;22.27;20.27;;;20.00;99.90;;;;;;6185548;23;20407;-75
2021/08/22 12:41:32;;;;;;;23.60;21.40;;;20.10;99.90;;;;;;6185322;23;20393;-76
2021/08/22 12:44:05;;;;;;;25.07;22.57;;;20.30;99.90;;;;;;6185273;23;20467;-76
2021/08/22 12:46:34;;;;;;;18.90;17.10;;;20.60;99.90;;;;;;6185890;23;20393;-76
2021/08/22 12:49:02;;;;;;;22.00;19.93;;;20.80;99.90;;;;;;6185919;23;20395;-77
2021/08/22 12:51:30;;;;;;;22.90;20.80;;;21.10;99.90;;;;;;6184020;23;20426;-76
2021/08/22 12:53:58;;;;;;;18.23;16.63;;;21.20;99.90;;;;;;6185267;23;20450;-76
2021/08/22 12:56:26;;;;;;;17.50;15.93;;;21.40;99.90;;;;;;6185251;23;20395;-76
2021/08/22 12:58:54;;;;;;;17.03;15.53;;;21.50;99.90;;;;;;6186053;23;20432;-76
2021/08/22 13:01:24;;;;;;;14.60;13.40;;;21.80;99.90;;;;;;6185435;23;20399;-77
2021/08/22 13:03:54;;;;;;;16.80;15.20;;;22.00;99.90;;;;;;6186105;23;20938;-81
2021/08/22 13:06:21;;;;;;;17.63;16.23;;;22.20;99.90;;;;;;6185781;23;20392;-79
2021/08/22 13:08:49;;;;;;;16.50;14.90;;;22.50;99.90;;;;;;6185377;23;20392;-79
2021/08/22 13:11:18;;;;;;;14.77;13.53;;;22.80;99.90;;;;;;6186080;23;20441;-81
2021/08/22 13:13:55;;;;;;;12.37;11.27;;;23.10;99.90;;;;;;6185727;23;20942;-78
2021/08/22 13:16:24;;;;;;;14.43;13.20;;;23.50;99.90;;;;;;6185042;23;20407;-79
2021/08/22 13:18:52;;;;;;;12.27;11.17;;;23.70;99.90;;;;;;6186259;23;20400;-79
2021/08/22 13:21:20;;;;;;;13.40;12.00;;;23.80;99.90;;;;;;6186061;23;20479;-78
2021/08/22 13:23:48;;;;;;;11.93;10.83;;;24.10;99.90;;;;;;6186076;23;20427;-78
2021/08/22 13:26:16;;;;;;;11.33;10.30;;;24.20;99.90;;;;;;6185815;23;20422;-77
2021/08/22 13:28:43;;;;;;;10.33;9.43;;;24.40;99.90;;;;;;6186827;23;20400;-78
2021/08/22 13:31:11;;;;;;;9.63;8.53;;;24.60;99.90;;;;;;6185471;23;20400;-76
2021/08/22 13:33:40;;;;;;;8.70;7.80;;;24.40;99.90;;;;;;6185673;23;20448;-78
2021/08/22 13:36:08;;;;;;;11.27;10.27;;;24.40;99.90;;;;;;6185767;23;20738;-77
2021/08/22 13:38:35;;;;;;;9.20;8.40;;;24.30;99.90;;;;;;6185323;23;20395;-77
2021/08/22 13:41:02;;;;;;;7.57;6.97;;;24.20;99.90;;;;;;6185168;23;20395;-78
2021/08/22 13:43:30;;;;;;;7.50;6.90;;;24.00;99.90;;;;;;6184981;23;20427;-77
2021/08/22 13:45:57;;;;;;;7.47;6.73;;;23.90;99.90;;;;;;6185224;23;20396;-77
2021/08/22 13:48:25;;;;;;;7.90;7.30;;;23.80;99.90;;;;;;6184443;23;20404;-78
2021/08/22 13:50:55;;;;;;;8.00;7.30;;;23.80;99.90;;;;;;6184653;23;20419;-76
2021/08/22 13:53:23;;;;;;;9.23;8.43;;;23.90;99.90;;;;;;6183041;23;20466;-78
2021/08/22 13:55:50;;;;;;;9.67;8.87;;;24.00;99.90;;;;;;6185077;23;20392;-76
2021/08/22 13:58:18;;;;;;;9.90;9.00;;;24.00;99.90;;;;;;6185323;23;20475;-75
2021/08/22 14:00:45;;;;;;;10.63;9.73;;;23.80;99.90;;;;;;6184603;23;20400;-76
2021/08/22 14:03:13;;;;;;;12.20;11.10;;;23.40;99.90;;;;;;6184295;23;20435;-74
2021/08/22 14:05:42;;;;;;;12.07;10.87;;;23.40;99.90;;;;;;6190632;23;20392;-79
2021/08/22 14:08:11;;;;;;;11.50;10.40;;;23.40;99.90;;;;;;6186923;23;20502;-75
2021/08/22 14:10:42;;;;;;;13.40;12.10;;;23.30;99.90;;;;;;6184801;23;20403;-77
2021/08/22 14:13:09;;;;;;;11.80;10.70;;;23.30;99.90;;;;;;6185900;23;20506;-79
2021/08/22 14:15:38;;;;;;;12.40;11.40;;;23.20;99.90;;;;;;6184912;23;20430;-78
2021/08/22 14:18:05;;;;;;;13.80;12.43;;;23.00;99.90;;;;;;6185668;23;20403;-78
2021/08/22 14:20:34;;;;;;;12.97;11.67;;;22.80;99.90;;;;;;6183757;23;20455;-77
2021/08/22 14:23:01;;;;;;;14.20;13.00;;;22.70;99.90;;;;;;6184167;23;20767;-77
2021/08/22 14:25:30;;;;;;;14.23;13.03;;;22.40;99.90;;;;;;6183181;23;20388;-74
2021/08/22 14:27:57;;;;;;;14.73;13.43;;;22.10;99.90;;;;;;6184360;23;20414;-75
2021/08/22 14:30:24;;;;;;;14.40;13.20;;;21.90;99.90;;;;;;6183860;23;20410;-77
2021/08/22 14:32:51;;;;;;;14.20;13.00;;;21.80;99.90;;;;;;6183480;23;20449;-76
2021/08/22 14:35:19;;;;;;;12.50;11.40;;;21.80;99.90;;;;;;6184402;23;20435;-75
2021/08/22 14:37:46;;;;;;;14.20;13.00;;;21.90;99.90;;;;;;6184931;23;20380;-76
2021/08/22 14:40:13;;;;;;;13.63;12.43;;;21.90;99.90;;;;;;6185494;23;20662;-74
2021/08/22 14:42:43;;;;;;;15.53;14.23;;;21.90;99.90;;;;;;6154381;23;20424;-75
2021/08/22 14:45:11;;;;;;;15.03;13.63;;;21.90;99.90;;;;;;6154521;23;20398;-75
2021/08/22 14:47:38;;;;;;;16.33;14.83;;;22.00;99.90;;;;;;6154774;23;20400;-76
2021/08/22 14:50:06;;;;;;;16.13;14.73;;;21.90;99.90;;;;;;6153879;23;20499;-74
2021/08/22 14:52:33;;;;;;;16.90;15.47;;;21.80;99.90;;;;;;6154342;23;20463;-74
2021/08/22 14:55:01;;;;;;;14.93;13.60;;;21.70;99.90;;;;;;6154538;23;20443;-74
2021/08/22 14:57:29;;;;;;;15.20;14.00;;;21.80;99.90;;;;;;6154405;23;20423;-76
2021/08/22 14:59:58;;;;;;;15.30;13.47;;;21.80;99.90;;;;;;6153865;23;20395;-74
2021/08/22 15:02:26;;;;;;;16.40;14.90;;;21.80;99.90;;;;;;6154247;23;20427;-77
2021/08/22 15:04:53;;;;;;;15.70;14.30;;;21.70;99.90;;;;;;6154805;23;20412;-74
2021/08/22 15:07:21;;;;;;;18.43;16.83;;;21.60;99.90;;;;;;6154508;23;20404;-76
2021/08/22 15:09:48;;;;;;;18.10;16.60;;;21.60;99.90;;;;;;6154732;23;20411;-76
2021/08/22 15:12:15;;;;;;;15.83;14.37;;;21.40;99.90;;;;;;6152980;23;20435;-75
2021/08/22 15:14:45;;;;;;;16.47;14.87;;;21.30;99.90;;;;;;6156516;23;20435;-76
2021/08/22 15:17:14;;;;;;;18.37;16.73;;;21.20;99.90;;;;;;6156744;23;20400;-81
2021/08/22 15:19:41;;;;;;;17.77;16.23;;;21.20;99.90;;;;;;6157529;23;20731;-78
2021/08/22 15:22:09;;;;;;;17.80;16.17;;;21.10;99.90;;;;;;6155577;23;20445;-75
2021/08/22 15:24:37;;;;;;;18.57;16.83;;;21.10;99.90;;;;;;6159033;23;20401;-78
2021/08/22 15:27:06;;;;;;;19.83;17.93;;;21.20;99.90;;;;;;6163459;23;20864;-75
2021/08/22 15:29:33;;;;;;;17.80;16.10;;;21.10;99.90;;;;;;6160547;23;20427;-73
2021/08/22 15:32:04;;;;;;;18.97;17.03;;;21.10;99.90;;;;;;6158879;23;20398;-78
2021/08/22 15:34:34;;;;;;;17.00;15.50;;;21.10;99.90;;;;;;6153061;23;20425;-75
2021/08/22 15:37:01;;;;;;;18.83;17.00;;;20.90;99.90;;;;;;6150596;23;20405;-76
2021/08/22 15:39:28;;;;;;;20.47;18.40;;;20.70;99.90;;;;;;6153992;23;20387;-76
2021/08/22 15:41:56;;;;;;;22.47;20.33;;;20.50;99.90;;;;;;6158865;23;20866;-75
2021/08/22 15:44:23;;;;;;;19.77;18.00;;;20.40;99.90;;;;;;6160773;23;20697;-72
2021/08/22 15:46:50;;;;;;;19.03;17.33;;;20.40;99.90;;;;;;6160079;23;20397;-74
2021/08/22 15:49:17;;;;;;;22.73;20.53;;;20.40;99.90;;;;;;6159305;23;20452;-76
2021/08/22 15:51:46;;;;;;;17.30;15.70;;;20.40;99.90;;;;;;6158611;23;20385;-77
2021/08/22 15:54:13;;;;;;;20.03;18.30;;;20.40;99.90;;;;;;6158117;23;20931;-77
2021/08/22 15:56:42;;;;;;;18.63;17.00;;;20.40;99.90;;;;;;6158785;23;20398;-77
2021/08/22 15:59:10;;;;;;;19.40;17.73;;;20.40;99.90;;;;;;6160445;23;20397;-76
2021/08/22 16:01:38;;;;;;;21.23;19.07;;;20.40;99.90;;;;;;6158960;23;20393;-77
2021/08/22 16:04:06;;;;;;;20.07;18.37;;;20.30;99.90;;;;;;6155462;23;20551;-76
2021/08/22 16:06:33;;;;;;;17.77;15.93;;;20.30;99.90;;;;;;6156307;23;20394;-73
2021/08/22 16:09:02;;;;;;;18.87;17.10;;;20.30;99.90;;;;;;6155809;23;20399;-73
2021/08/22 16:11:29;;;;;;;15.43;14.07;;;20.30;99.90;;;;;;6155769;23;20480;-74
2021/08/22 16:13:57;;;;;;;19.67;17.80;;;20.40;99.90;;;;;;6155839;23;20437;-75
2021/08/22 16:16:24;;;;;;;18.93;16.73;;;20.40;99.90;;;;;;6155511;23;20859;-74
2021/08/22 16:18:52;;;;;;;19.57;17.30;;;20.40;99.90;;;;;;6155842;23;20390;-75
2021/08/22 16:21:21;;;;;;;19.83;17.93;;;20.50;99.90;;;;;;6155169;23;20389;-74
2021/08/22 16:23:52;;;;;;;17.10;15.50;;;20.60;99.90;;;;;;6155348;23;20432;-72
2021/08/22 16:26:22;;;;;;;14.70;13.20;;;20.70;99.90;;;;;;6156424;23;20396;-74
2021/08/22 16:28:51;;;;;;;15.80;14.40;;;20.80;99.90;;;;;;6155493;23;20906;-75
2021/08/22 16:31:18;;;;;;;17.83;16.23;;;20.90;99.90;;;;;;6155388;23;20402;-74
2021/08/22 16:33:45;;;;;;;17.43;15.83;;;20.90;99.90;;;;;;6155112;23;20893;-75
2021/08/22 16:36:12;;;;;;;14.90;13.67;;;20.80;99.90;;;;;;6155294;23;20430;-75
2021/08/22 16:38:40;;;;;;;14.60;13.20;;;20.70;99.90;;;;;;6155753;23;20410;-76
2021/08/22 16:41:08;;;;;;;14.60;13.33;;;20.50;99.90;;;;;;6153583;23;20386;-75
2021/08/22 16:43:36;;;;;;;15.33;13.80;;;20.40;99.90;;;;;;6155382;23;20437;-74
2021/08/22 16:46:04;;;;;;;16.10;13.00;;;20.30;99.90;;;;;;6155373;23;20393;-75
2021/08/22 16:48:31;;;;;;;15.33;14.00;;;20.20;99.90;;;;;;6155985;23;20389;-74
2021/08/22 16:50:58;;;;;;;14.27;12.83;;;20.10;99.90;;;;;;6154719;23;20431;-75
2021/08/22 16:53:26;;;;;;;14.70;13.40;;;20.10;99.90;;;;;;6155143;23;20429;-78
2021/08/22 16:55:56;;;;;;;15.40;13.90;;;19.90;99.90;;;;;;6155387;23;20773;-78
2021/08/22 16:58:23;;;;;;;15.20;13.70;;;19.90;99.90;;;;;;6155113;23;20899;-78
2021/08/22 17:00:52;;;;;;;14.97;13.77;;;19.90;99.90;;;;;;6154466;23;20552;-76
2021/08/22 17:03:19;;;;;;;12.90;11.90;;;19.90;99.90;;;;;;6154645;23;20511;-75
2021/08/22 17:05:46;;;;;;;13.10;12.00;;;19.80;99.90;;;;;;6155196;23;20389;-75
2021/08/22 17:08:14;;;;;;;12.60;11.50;;;19.80;99.90;;;;;;6154875;23;20481;-76
2021/08/22 17:10:44;;;;;;;14.17;12.77;;;19.80;99.90;;;;;;6154385;23;20449;-77
2021/08/22 17:13:12;;;;;;;11.83;10.87;;;19.70;99.90;;;;;;6155317;23;20464;-79
2021/08/22 17:15:39;;;;;;;12.83;11.60;;;19.60;99.90;;;;;;6155866;23;20428;-74
2021/08/22 17:18:10;;;;;;;14.90;11.07;;;19.60;99.90;;;;;;6156195;23;20889;-78
2021/08/22 17:20:38;;;;;;;12.83;11.73;;;19.60;99.90;;;;;;6154988;23;20396;-76
2021/08/22 17:23:06;;;;;;;14.43;12.10;;;19.60;99.90;;;;;;6155136;23;20444;-80
2021/08/22 17:25:36;;;;;;;13.10;12.00;;;19.60;99.90;;;;;;6153859;23;20396;-78
2021/08/22 17:28:03;;;;;;;10.87;9.87;;;19.60;99.90;;;;;;6155317;23;20393;-76
2021/08/22 17:30:32;;;;;;;10.93;9.93;;;19.50;99.90;;;;;;6156021;23;20411;-78
2021/08/22 17:32:59;;;;;;;12.70;11.60;;;19.50;99.90;;;;;;6156416;23;20766;-78
2021/08/22 17:35:29;;;;;;;10.67;9.77;;;19.50;99.90;;;;;;6155473;23;20495;-79
2021/08/22 17:37:57;;;;;;;10.93;9.93;;;19.40;99.90;;;;;;6155855;23;20423;-83
2021/08/22 17:40:25;;;;;;;10.40;9.37;;;19.40;99.90;;;;;;6156796;23;20401;-80
2021/08/22 17:42:52;;;;;;;10.10;9.27;;;19.30;99.90;;;;;;6160452;23;20428;-81
2021/08/22 17:45:20;;;;;;;10.10;9.20;;;19.30;99.90;;;;;;6164042;23;20457;-79
2021/08/22 17:47:47;;;;;;;9.93;8.93;;;19.30;99.90;;;;;;6157450;23;20405;-82
2021/08/22 17:50:16;;;;;;;9.10;8.23;;;19.30;99.90;;;;;;6158295;23;20719;-81
2021/08/22 17:52:45;;;;;;;8.27;7.57;;;19.30;99.90;;;;;;6156338;23;20505;-81
2021/08/22 17:55:12;;;;;;;10.00;9.10;;;19.20;99.90;;;;;;6155848;23;20432;-79
2021/08/22 17:57:39;;;;;;;8.67;7.87;;;19.10;99.90;;;;;;6155034;23;20856;-78
2021/08/22 18:00:07;;;;;;;7.60;7.00;;;19.00;99.90;;;;;;6155214;23;20404;-82
2021/08/22 18:02:36;;;;;;;8.20;7.40;;;19.00;99.90;;;;;;6154604;23;20423;-79
2021/08/22 18:05:03;;;;;;;7.77;6.97;;;19.00;99.90;;;;;;6158427;23;20393;-77
2021/08/22 18:07:34;;;;;;;6.97;6.30;;;18.80;99.90;;;;;;6132124;23;20412;-77
2021/08/22 18:10:08;;;;;;;10.10;7.50;;;18.60;99.90;;;;;;6166757;23;20710;-83
2021/08/22 18:12:35;;;;;;;6.63;6.00;;;18.50;99.90;;;;;;6135339;23;20432;-74
2021/08/22 18:15:05;;;;;;;6.77;6.17;;;18.40;99.90;;;;;;6154151;23;20875;-78
2021/08/22 18:17:32;;;;;;;6.70;6.13;;;18.30;99.90;;;;;;6155304;23;20874;-78
2021/08/22 18:19:59;;;;;;;7.33;6.53;;;18.30;99.90;;;;;;6155209;23;20413;-78
2021/08/22 18:22:29;;;;;;;8.80;7.90;;;18.30;99.90;;;;;;6154565;23;20431;-79
2021/08/22 18:24:56;;;;;;;6.00;5.50;;;18.30;99.90;;;;;;6154294;23;20412;-78
2021/08/22 18:27:25;;;;;;;7.07;6.20;;;18.20;99.90;;;;;;6157300;23;20384;-79
2021/08/22 18:29:52;;;;;;;7.80;7.00;;;18.30;99.90;;;;;;6160611;23;20428;-79
2021/08/22 18:32:25;;;;;;;5.37;4.97;;;18.20;99.90;;;;;;6159881;23;20455;-78
2021/08/22 18:34:52;;;;;;;5.80;5.20;;;18.20;99.90;;;;;;6161175;23;20392;-79
2021/08/22 18:37:22;;;;;;;6.20;5.47;;;18.20;99.90;;;;;;6162817;23;20396;-77
2021/08/22 18:39:51;;;;;;;6.57;5.97;;;18.20;99.90;;;;;;6160673;23;20424;-78
2021/08/22 18:42:18;;;;;;;6.70;6.10;;;18.30;99.90;;;;;;6160708;23;20436;-78
2021/08/22 18:44:49;;;;;;;6.73;6.23;;;18.30;99.90;;;;;;6162737;23;20471;-79
2021/08/22 18:47:16;;;;;;;7.20;6.27;;;18.20;99.90;;;;;;6158060;23;20488;-79
2021/08/22 18:49:43;;;;;;;6.40;5.90;;;18.20;99.90;;;;;;6156677;23;20812;-77
2021/08/22 18:52:10;;;;;;;7.10;6.40;;;18.20;99.90;;;;;;6155900;23;20442;-78
2021/08/22 18:54:40;;;;;;;7.53;6.83;;;18.30;99.90;;;;;;6156361;23;20397;-78
2021/08/22 18:57:07;;;;;;;6.30;5.73;;;18.30;99.90;;;;;;6158005;23;20397;-77
2021/08/22 18:59:34;;;;;;;6.20;5.70;;;18.30;99.90;;;;;;6157178;23;20420;-78
2021/08/22 19:02:03;;;;;;;6.00;5.50;;;18.30;99.90;;;;;;6155909;23;20725;-78
2021/08/22 19:04:31;;;;;;;7.23;6.63;;;18.40;99.90;;;;;;6156848;23;20726;-78
2021/08/22 19:06:58;;;;;;;11.33;9.50;;;18.40;99.90;;;;;;6156483;23;20388;-76
2021/08/22 19:09:26;;;;;;;8.43;5.90;;;18.40;99.90;;;;;;6156547;23;20400;-78
2021/08/22 19:11:53;;;;;;;7.33;6.73;;;18.40;99.90;;;;;;6155407;23;20392;-77
2021/08/22 19:14:20;;;;;;;6.70;6.00;;;18.40;99.90;;;;;;6156118;23;20381;-78
2021/08/22 19:16:48;;;;;;;6.70;6.00;;;18.40;99.90;;;;;;6155273;23;20424;-75
2021/08/22 19:19:17;;;;;;;5.70;5.10;;;18.40;99.90;;;;;;6155596;23;20387;-74
2021/08/22 19:21:45;;;;;;;7.47;6.57;;;18.50;99.90;;;;;;6155760;23;20400;-76
2021/08/22 19:24:12;;;;;;;6.47;5.90;;;18.40;99.90;;;;;;6155903;23;20396;-76
2021/08/22 19:26:40;;;;;;;6.87;6.27;;;18.40;99.90;;;;;;6154926;23;20499;-78
2021/08/22 19:29:07;;;;;;;6.17;5.60;;;18.40;99.90;;;;;;6155160;23;20393;-76
2021/08/22 19:31:36;;;;;;;6.97;6.33;;;18.30;99.90;;;;;;6154598;23;20393;-76
2021/08/22 19:34:05;;;;;;;5.60;5.10;;;18.40;99.90;;;;;;6155348;23;20435;-76
2021/08/22 19:36:34;;;;;;;7.03;6.33;;;18.30;99.90;;;;;;6154451;23;20442;-76
2021/08/22 19:39:01;;;;;;;6.93;6.23;;;18.30;99.90;;;;;;6154823;23;20430;-78
2021/08/22 19:41:29;;;;;;;5.07;4.67;;;18.20;99.90;;;;;;6155651;23;20859;-77
2021/08/22 19:43:56;;;;;;;6.97;6.37;;;18.20;99.90;;;;;;6158979;23;20438;-77
2021/08/22 19:46:23;;;;;;;7.87;7.17;;;18.20;99.90;;;;;;6156908;23;20705;-76
2021/08/22 19:48:50;;;;;;;6.43;5.93;;;18.20;99.90;;;;;;6156774;23;20401;-75
2021/08/22 19:51:18;;;;;;;6.50;6.00;;;18.20;99.90;;;;;;6154664;23;20455;-75
2021/08/22 19:53:46;;;;;;;5.93;5.40;;;18.20;99.90;;;;;;6156479;23;20435;-80
2021/08/22 19:56:15;;;;;;;5.80;5.30;;;18.20;99.90;;;;;;6155061;23;20459;-76
2021/08/22 19:58:44;;;;;;;7.07;6.37;;;18.20;99.90;;;;;;6155607;23;20504;-76
2021/08/22 20:01:12;;;;;;;7.97;7.27;;;18.10;99.90;;;;;;6155353;23;20404;-76
2021/08/22 20:03:39;;;;;;;8.93;7.70;;;18.10;99.90;;;;;;6155787;23;20508;-79
2021/08/22 20:06:08;;;;;;;7.60;6.50;;;18.10;99.90;;;;;;6155544;23;20436;-79
2021/08/22 20:08:39;;;;;;;8.47;7.47;;;18.10;99.90;;;;;;6156280;23;20425;-78
2021/08/22 20:11:09;;;;;;;12.00;8.47;;;18.00;99.90;;;;;;6155221;23;20440;-81
2021/08/22 20:13:37;;;;;;;9.97;9.03;;;18.00;99.90;;;;;;6154353;23;20591;-75
2021/08/22 20:16:05;;;;;;;8.60;7.50;;;18.00;99.90;;;;;;6155438;23;20433;-77
2021/08/22 20:18:32;;;;;;;8.53;7.70;;;18.00;99.90;;;;;;6155908;23;20404;-82
2021/08/22 20:21:00;;;;;;;8.43;7.50;;;17.90;99.90;;;;;;6155438;23;20476;-78
2021/08/22 20:23:28;;;;;;;10.20;8.70;;;17.90;99.90;;;;;;6155280;23;20432;-78
2021/08/22 20:25:55;;;;;;;8.87;8.00;;;17.90;99.90;;;;;;6156280;23;20413;-78
2021/08/22 20:28:24;;;;;;;9.13;8.33;;;18.00;99.90;;;;;;6155387;23;20851;-76
2021/08/22 20:30:52;;;;;;;8.90;8.00;;;17.90;99.90;;;;;;6155105;23;20451;-79
2021/08/22 20:33:20;;;;;;;8.07;7.10;;;17.90;99.90;;;;;;6159885;23;20448;-78
2021/08/22 20:35:48;;;;;;;10.73;9.73;;;17.90;99.90;;;;;;6156366;23;21373;-81
2021/08/22 20:38:16;;;;;;;8.77;7.50;;;17.90;99.90;;;;;;6156968;23;20472;-81
2021/08/22 20:40:45;;;;;;;8.07;7.37;;;17.90;99.90;;;;;;6158751;23;20874;-80
2021/08/22 20:43:12;;;;;;;7.33;6.63;;;17.90;99.90;;;;;;6160012;23;20763;-78
2021/08/22 20:45:41;;;;;;;10.30;9.30;;;17.90;99.90;;;;;;6157436;23;20482;-84